Pagrindinis puslapis
METAR-TAF:

METAR-TAF

Oro uostai :

Abu Simbelas, Egiptas

platuma: 22-22-33N, ilguma: 31-36-42E, Aukštis: 188 m

Dabartinis oras

Ataskaita buvo paskelbta 30 minutes, ne 10:00 UTC
Vėjas 4 kt iš Šiaurės/Šiaurės Rytų
Temperatūra 21°C
Drėgmė 43%
Slėgis 1018 hPa
Matomumas 10 km arba daugiau
nėra debesų žemiau 1500 m ir nėra kamuolinių lietaus debesų

METAR: HEBL 071000Z 02004KT CAVOK 21/08 Q1018 NOSIG

Laikas: 12:30 (10:30 UTC)

Prognozė

Ataskaita buvo paskelbta 5 valandos ir 30 minutes, ne 05:00 UTC
Prognozė galioja nuo 07 metu 06 UTC su 08 metu 12 UTC
Vėjas 10 kt iš Šiaurės
Matomumas 10 km arba daugiau
nėra debesų žemiau 1500 m ir nėra kamuolinių lietaus debesų

TAF: HEBL 070500Z 0706/0812 36010KT CAVOK

Orai ataskaitas ir orų prognozės (METAR, TAF).

turimą stotys yra geltonos ir raudonos taškus žemėlapyje.

Perkelti pele per norėdami pamatyti stoties vardą.

Tada spustelėkite, norėdami matyti oro stebėjimo ir prognozės.

Norėdami pakeisti žemėlapį: spustelėkite ant žalios mygtukų su juodo kryžiaus žemyn,; žalią mygtuką su brūkšneliu, jei norite nutolinti; arba žalių rodyklių gretimoms žemėlapius.


METAR-TAF: